Flight Track Log - Related Links

Times and Time Zones

All times are in EDT time to prevent confusion due to time zone crossing. See the SKW6492 flight status page for this flight to view local times or setup timezone preferences in your user account.

Time Position Orientation Groundspeed Altitude Reporting Facility
EDT Latitude Longitude Course Direction KTS MPH feet Rate Location/Type
Tue 09:56:57 PM 39.8833 -104.5833 346° North 198 228 6,700  Level Denver TRACON
Tue 09:57:57 PM 39.9000 -104.5000 75° East 264 304 7,700 1,400 Climbing Denver TRACON
Tue 09:58:57 PM 39.9333 -104.4167 62° Northeast 310 357 9,500 1,850 Climbing Denver TRACON
Tue 09:59:00 PM 40.1709 -104.7729 347° North  Level FlightAware Approximate
Tue 09:59:57 PM 40.0333 -104.4000 North 309 356 11,400  Level Denver TRACON
Tue 10:00:00 PM 40.2786 -104.8052 347° North  Level FlightAware Approximate
Tue 10:00:57 PM 40.1167 -104.4167 351° North 313 360 13,400  Level Denver TRACON
Tue 10:01:00 PM 40.3860 -104.8398 346° North  Level FlightAware Approximate
Tue 10:01:57 PM 40.2000 -104.4667 335° Northwest 315 362 14,900  Level Denver TRACON
Tue 10:02:00 PM 40.4932 -104.8755 346° North  Level FlightAware Approximate
Tue 10:02:57 PM 40.2667 -104.5167 330° Northwest 336 387 16,200  Level Denver TRACON
Tue 10:04:22 PM 40.3947 -104.5903 336° Northwest 345 397 18,500 1,388 Climbing Denver Center
Tue 10:05:24 PM 40.4803 -104.6481 333° Northwest 346 398 19,600 1,220 Climbing Denver Center
Tue 10:06:25 PM 40.5703 -104.7061 334° Northwest 360 414 21,000 1,366 Climbing Denver Center
Tue 10:07:27 PM 40.6639 -104.7714 332° Northwest 353 406 22,400 1,073 Climbing Denver Center
Tue 10:08:28 PM 40.7425 -104.8214 334° Northwest 349 402 23,200 829 Climbing Denver Center
Tue 10:09:30 PM 40.8350 -104.8725 337° Northwest 364 419 24,100 976 Climbing Denver Center
Tue 10:10:31 PM 40.9497 -104.9292 340° North 368 423 25,200 780 Climbing Denver Center
Tue 10:11:33 PM 41.0519 -104.9800 339° North 381 438 25,700 387 Climbing Denver Center
Tue 10:12:35 PM 41.1503 -105.0256 341° North 390 449 26,000 146 Climbing Denver Center
Tue 10:13:36 PM 41.2514 -105.0775 339° North 404 465 26,000  Level Denver Center
Tue 10:14:38 PM 41.3697 -105.1386 339° North 407 468 26,000  Level Denver Center
Tue 10:15:39 PM 41.4728 -105.1883 340° North 411 473 26,000  Level Denver Center
Tue 10:16:41 PM 41.5892 -105.2631 334° Northwest 419 482 26,000  Level Denver Center
Tue 10:17:42 PM 41.6736 -105.3539 321° Northwest 407 468 26,000  Level Denver Center
Tue 10:18:44 PM 41.7578 -105.4450 321° Northwest 406 467 26,000  Level Denver Center
Tue 10:19:45 PM 41.8581 -105.5533 321° Northwest 410 472 26,000  Level Denver Center
Tue 10:20:47 PM 41.9422 -105.6450 321° Northwest 410 472 26,000  Level Denver Center
Tue 10:21:48 PM 42.0372 -105.7492 321° Northwest 399 459 26,000  Level Denver Center
Tue 10:22:49 PM 42.1186 -105.8394 321° Northwest 392 451 26,000  Level Denver Center
Tue 10:23:51 PM 42.2017 -105.9306 321° Northwest 399 459 26,000  Level Denver Center
Tue 10:24:52 PM 42.2975 -106.0375 320° Northwest 401 461 26,000  Level Denver Center
Tue 10:25:54 PM 42.3792 -106.1281 321° Northwest 398 458 26,000  Level Denver Center
Tue 10:26:55 PM 42.4761 -106.2347 321° Northwest 400 460 26,000  Level Denver Center
Tue 10:27:56 PM 42.5575 -106.3275 320° Northwest 397 457 26,000  Level Denver Center
Tue 10:28:58 PM 42.6408 -106.4197 321° Northwest 402 463 26,000  Level Denver Center
Tue 10:29:59 PM 42.7364 -106.5281 320° Northwest 402 463 26,000  Level Denver Center
Tue 10:31:00 PM 42.8186 -106.6214 320° Northwest 404 465 26,000  Level Denver Center
Tue 10:32:02 PM 42.9144 -106.7311 320° Northwest 403 464 26,000  Level Denver Center
Tue 10:33:03 PM 42.9961 -106.8253 320° Northwest 402 463 26,000  Level Denver Center
Tue 10:33:50 PM 43.0644 -106.9044 320° Northwest 401 461 26,000  Level Salt Lake Center
Tue 10:34:52 PM 43.1503 -107.0031 320° Northwest 402 463 26,000  Level Salt Lake Center
Tue 10:35:53 PM 43.2372 -107.1008 321° Northwest 405 466 26,000  Level Salt Lake Center
Tue 10:36:55 PM 43.3228 -107.1978 321° Northwest 401 461 26,000  Level Salt Lake Center
Tue 10:37:57 PM 43.4089 -107.2969 320° Northwest 402 463 26,000  Level Salt Lake Center
Tue 10:38:58 PM 43.4964 -107.3958 321° Northwest 407 468 26,000  Level Salt Lake Center
Tue 10:40:00 PM 43.5822 -107.4944 320° Northwest 403 464 26,000  Level Salt Lake Center
Tue 10:41:02 PM 43.6856 -107.6133 320° Northwest 403 464 26,000  Level Salt Lake Center
Tue 10:42:03 PM 43.7708 -107.7136 320° Northwest 403 464 26,000  Level Salt Lake Center
Tue 10:43:05 PM 43.8581 -107.8108 321° Northwest 404 465 26,000  Level Salt Lake Center
Tue 10:44:07 PM 43.9428 -107.9103 320° Northwest 400 460 26,000  Level Salt Lake Center
Tue 10:45:08 PM 44.0278 -108.0092 320° Northwest 398 458 26,000 -1,317 Level Salt Lake Center
Tue 10:46:10 PM 44.1108 -108.1072 320° Northwest 392 451 23,300 -2,758 Descending Salt Lake Center
Tue 10:47:12 PM 44.1942 -108.2058 320° Northwest 392 451 20,300 -2,878 Descending Salt Lake Center
Tue 10:48:13 PM 44.2753 -108.3003 320° Northwest 384 442 17,400 -3,220 Descending Salt Lake Center
Tue 10:49:15 PM 44.3692 -108.4114 320° Northwest 375 432 13,700 -3,268 Descending Salt Lake Center
Tue 10:50:16 PM 44.4456 -108.5022 320° Northwest 368 423 10,700 -1,854 Descending Salt Lake Center
Tue 10:51:18 PM 44.5197 -108.5925 319° Northwest 362 417 9,900 -823 Descending Salt Lake Center
Tue 10:52:20 PM 44.5775 -108.6606 320° Northwest 309 356 9,000 -829 Descending Salt Lake Center
Tue 10:53:21 PM 44.6333 -108.7275 320° Northwest 280 322 8,200 -732 Descending Salt Lake Center
Tue 10:54:23 PM 44.6394 -108.8094 276° West 253 291 7,500 -341 Descending Salt Lake Center
Tue 10:55:24 PM 44.6058 -108.8722 233° Southwest 222 255 7,500 -293 Level Salt Lake Center
Tue 10:56:26 PM 44.5764 -108.9267 233° Southwest 197 227 6,900 -780 Descending Salt Lake Center
Tue 10:57:27 PM 44.5486 -108.9753 231° Southwest 178 205 5,900 -780 Descending Salt Lake Center
Tue 10:58:29 PM 44.5169 -109.0308 231° Southwest 176 203 5,300 -581 Descending Salt Lake Center

Login

Don't have an account? Register now (free) for customized features, flight alerts, and more!